Terminal Aerodrome Forecast
Issued by NWS

Home | Current Version | Previous Version | Text Only | Print | Product List | Glossary On
Versions: 1 2 3 4 5 6 7 8 9 10 11 12 13 14 15 16 17
000
FTUS46 KMTR 191120
TAFSNS
TAF
KSNS 191120Z 1912/2012 VRB04KT P6SM FEW250
     FM191500 24010KT P6SM FEW250
     FM191700 27011KT P6SM SKC
     FM192000 26014G20KT P6SM SKC
     FM200500 25008KT P6SM SKC
      TEMPO 2006/2010 BKN015
     FM201000 28006KT P6SM BKN013=

USA.gov is the U.S. government's official web portal to all federal, state and local government web resources and services.